< < Back
Terminal Aerodrome Forecast


Current Version              Previous Versions:   1  2  3  4  5  6  7  8  9  

Terminal Aerodrome Forecast

828
FTUS44 KMRX 020532
TAFTYS
TAF
KTYS 020532Z 0206/0306 04005KT P6SM BKN250
     FM021200 22009KT P6SM SCT060
     FM021500 21012KT P6SM VCTS BKN060CB
     FM022000 21012G20KT P6SM VCTS SCT050CB BKN100
     FM030100 22012KT P6SM BKN100=

Latest METAR

701
SAUS80 KWBC 020900 RRA
MTRTYS
METAR KTYS 020853Z 00000KT 10SM SCT250 09/01 A3006 RMK AO2 SLP176
T00890011 56008


USA.gov is the U.S. government's official web portal to all federal, state and local government web resources and services.